sensor_id;sensor_type;location;lat;lon;timestamp;temperature;humidity
21439;DHT22;10880;50.302;18.736;2023-04-06T00:00:07;4.70;45.40
21439;DHT22;10880;50.302;18.736;2023-04-06T00:02:41;4.70;45.50
21439;DHT22;10880;50.302;18.736;2023-04-06T00:05:34;4.70;45.70
21439;DHT22;10880;50.302;18.736;2023-04-06T00:08:07;4.60;45.60
21439;DHT22;10880;50.302;18.736;2023-04-06T00:11:05;4.60;45.80
21439;DHT22;10880;50.302;18.736;2023-04-06T00:13:38;4.60;45.70
21439;DHT22;10880;50.302;18.736;2023-04-06T00:16:31;4.60;45.90
21439;DHT22;10880;50.302;18.736;2023-04-06T00:19:06;4.60;45.90
21439;DHT22;10880;50.302;18.736;2023-04-06T00:21:59;4.50;46.00
21439;DHT22;10880;50.302;18.736;2023-04-06T00:24:34;4.50;46.00
21439;DHT22;10880;50.302;18.736;2023-04-06T00:27:30;4.50;46.00
21439;DHT22;10880;50.302;18.736;2023-04-06T00:30:08;4.50;46.10
21439;DHT22;10880;50.302;18.736;2023-04-06T00:33:04;4.50;46.30
21439;DHT22;10880;50.302;18.736;2023-04-06T00:35:38;4.50;46.10
21439;DHT22;10880;50.302;18.736;2023-04-06T00:38:31;4.40;46.30
21439;DHT22;10880;50.302;18.736;2023-04-06T00:41:04;4.40;46.10
21439;DHT22;10880;50.302;18.736;2023-04-06T00:43:58;4.40;46.00
21439;DHT22;10880;50.302;18.736;2023-04-06T00:46:31;4.40;46.40
21439;DHT22;10880;50.302;18.736;2023-04-06T00:49:26;4.30;46.20
21439;DHT22;10880;50.302;18.736;2023-04-06T00:52:00;4.30;46.30
21439;DHT22;10880;50.302;18.736;2023-04-06T00:54:55;4.30;46.50
21439;DHT22;10880;50.302;18.736;2023-04-06T00:57:29;4.20;46.40
21439;DHT22;10880;50.302;18.736;2023-04-06T01:00:29;4.20;46.50
21439;DHT22;10880;50.302;18.736;2023-04-06T01:03:03;4.10;46.60
21439;DHT22;10880;50.302;18.736;2023-04-06T01:05:57;4.10;46.60
21439;DHT22;10880;50.302;18.736;2023-04-06T01:08:36;4.10;46.60
21439;DHT22;10880;50.302;18.736;2023-04-06T01:11:35;4.00;46.70
21439;DHT22;10880;50.302;18.736;2023-04-06T01:14:11;4.00;46.60
21439;DHT22;10880;50.302;18.736;2023-04-06T01:17:10;4.00;46.90
21439;DHT22;10880;50.302;18.736;2023-04-06T01:19:44;3.90;46.60
21439;DHT22;10880;50.302;18.736;2023-04-06T01:22:44;3.80;46.90
21439;DHT22;10880;50.302;18.736;2023-04-06T01:25:18;3.80;46.70
21439;DHT22;10880;50.302;18.736;2023-04-06T01:28:18;3.80;47.10
21439;DHT22;10880;50.302;18.736;2023-04-06T01:31:06;3.80;47.00
21439;DHT22;10880;50.302;18.736;2023-04-06T01:34:02;3.80;47.30
21439;DHT22;10880;50.302;18.736;2023-04-06T01:36:35;3.80;47.00
21439;DHT22;10880;50.302;18.736;2023-04-06T01:39:44;3.80;47.00
21439;DHT22;10880;50.302;18.736;2023-04-06T01:42:27;3.80;47.00
21439;DHT22;10880;50.302;18.736;2023-04-06T01:45:25;3.80;47.20
21439;DHT22;10880;50.302;18.736;2023-04-06T01:48:09;3.70;47.50
21439;DHT22;10880;50.302;18.736;2023-04-06T01:51:05;3.80;47.20
21439;DHT22;10880;50.302;18.736;2023-04-06T01:54:24;3.80;47.40
21439;DHT22;10880;50.302;18.736;2023-04-06T01:57:16;4.20;47.60
21439;DHT22;10880;50.302;18.736;2023-04-06T02:00:16;3.80;47.20
21439;DHT22;10880;50.302;18.736;2023-04-06T02:02:53;3.80;47.20
21439;DHT22;10880;50.302;18.736;2023-04-06T02:05:48;3.70;47.00
21439;DHT22;10880;50.302;18.736;2023-04-06T02:08:30;3.70;47.50
21439;DHT22;10880;50.302;18.736;2023-04-06T02:11:23;3.60;47.30
21439;DHT22;10880;50.302;18.736;2023-04-06T02:13:56;3.60;47.40
21439;DHT22;10880;50.302;18.736;2023-04-06T02:16:55;3.60;47.40
21439;DHT22;10880;50.302;18.736;2023-04-06T02:19:28;3.60;47.30
21439;DHT22;10880;50.302;18.736;2023-04-06T02:22:21;3.60;47.50
21439;DHT22;10880;50.302;18.736;2023-04-06T02:24:54;3.60;47.50
21439;DHT22;10880;50.302;18.736;2023-04-06T02:27:47;3.60;47.60
21439;DHT22;10880;50.302;18.736;2023-04-06T02:30:20;3.70;47.50
21439;DHT22;10880;50.302;18.736;2023-04-06T02:33:14;3.70;47.60
21439;DHT22;10880;50.302;18.736;2023-04-06T02:35:48;3.70;47.60
21439;DHT22;10880;50.302;18.736;2023-04-06T02:38:41;3.70;47.70
21439;DHT22;10880;50.302;18.736;2023-04-06T02:41:18;3.70;48.30
21439;DHT22;10880;50.302;18.736;2023-04-06T02:44:15;3.80;47.60
21439;DHT22;10880;50.302;18.736;2023-04-06T02:46:48;3.80;47.70
21439;DHT22;10880;50.302;18.736;2023-04-06T02:49:44;3.80;47.80
21439;DHT22;10880;50.302;18.736;2023-04-06T02:52:17;3.80;47.40
21439;DHT22;10880;50.302;18.736;2023-04-06T02:55:10;3.80;47.80
21439;DHT22;10880;50.302;18.736;2023-04-06T02:57:43;3.90;47.80
21439;DHT22;10880;50.302;18.736;2023-04-06T03:00:41;3.90;47.80
21439;DHT22;10880;50.302;18.736;2023-04-06T03:03:14;3.90;47.70
21439;DHT22;10880;50.302;18.736;2023-04-06T03:06:07;3.90;47.60
21439;DHT22;10880;50.302;18.736;2023-04-06T03:08:40;3.90;47.70
21439;DHT22;10880;50.302;18.736;2023-04-06T03:11:33;3.90;47.80
21439;DHT22;10880;50.302;18.736;2023-04-06T03:14:07;3.90;47.70
21439;DHT22;10880;50.302;18.736;2023-04-06T03:16:59;3.90;47.80
21439;DHT22;10880;50.302;18.736;2023-04-06T03:19:33;3.90;47.70
21439;DHT22;10880;50.302;18.736;2023-04-06T03:22:26;3.90;47.50
21439;DHT22;10880;50.302;18.736;2023-04-06T03:25:01;3.90;47.80
21439;DHT22;10880;50.302;18.736;2023-04-06T03:27:59;3.80;47.50
21439;DHT22;10880;50.302;18.736;2023-04-06T03:30:37;3.80;47.50
21439;DHT22;10880;50.302;18.736;2023-04-06T03:33:34;3.80;47.80
21439;DHT22;10880;50.302;18.736;2023-04-06T03:36:10;3.80;47.80
21439;DHT22;10880;50.302;18.736;2023-04-06T03:39:08;3.70;47.50
21439;DHT22;10880;50.302;18.736;2023-04-06T03:41:42;3.80;47.50
21439;DHT22;10880;50.302;18.736;2023-04-06T03:44:47;3.70;47.80
21439;DHT22;10880;50.302;18.736;2023-04-06T03:47:20;3.70;47.70
21439;DHT22;10880;50.302;18.736;2023-04-06T03:50:17;3.70;47.80
21439;DHT22;10880;50.302;18.736;2023-04-06T03:52:56;3.60;47.60
21439;DHT22;10880;50.302;18.736;2023-04-06T03:55:52;3.60;47.80
21439;DHT22;10880;50.302;18.736;2023-04-06T03:58:32;2.10;47.30
21439;DHT22;10880;50.302;18.736;2023-04-06T04:01:25;3.60;48.00
21439;DHT22;10880;50.302;18.736;2023-04-06T04:03:58;3.50;47.60
21439;DHT22;10880;50.302;18.736;2023-04-06T04:06:51;3.50;47.70
21439;DHT22;10880;50.302;18.736;2023-04-06T04:09:24;3.40;47.70
21439;DHT22;10880;50.302;18.736;2023-04-06T04:12:17;3.40;48.00
21439;DHT22;10880;50.302;18.736;2023-04-06T04:14:50;3.30;47.70
21439;DHT22;10880;50.302;18.736;2023-04-06T04:17:43;3.30;48.10
21439;DHT22;10880;50.302;18.736;2023-04-06T04:20:19;3.30;47.80
21439;DHT22;10880;50.302;18.736;2023-04-06T04:23:13;3.30;47.80
21439;DHT22;10880;50.302;18.736;2023-04-06T04:25:46;3.20;48.10
21439;DHT22;10880;50.302;18.736;2023-04-06T04:28:39;3.20;47.90
21439;DHT22;10880;50.302;18.736;2023-04-06T04:31:12;3.20;48.20
21439;DHT22;10880;50.302;18.736;2023-04-06T04:34:15;3.20;48.10
21439;DHT22;10880;50.302;18.736;2023-04-06T04:36:50;3.20;48.00
21439;DHT22;10880;50.302;18.736;2023-04-06T04:39:57;3.10;48.60
21439;DHT22;10880;50.302;18.736;2023-04-06T04:42:37;3.10;48.20
21439;DHT22;10880;50.302;18.736;2023-04-06T04:45:41;3.10;48.30
21439;DHT22;10880;50.302;18.736;2023-04-06T04:48:26;3.10;48.30
21439;DHT22;10880;50.302;18.736;2023-04-06T04:51:19;3.10;48.50
21439;DHT22;10880;50.302;18.736;2023-04-06T04:54:24;3.10;48.50
21439;DHT22;10880;50.302;18.736;2023-04-06T04:57:17;3.10;48.40
21439;DHT22;10880;50.302;18.736;2023-04-06T04:59:50;3.10;48.80
21439;DHT22;10880;50.302;18.736;2023-04-06T05:02:44;3.20;48.80
21439;DHT22;10880;50.302;18.736;2023-04-06T05:05:29;3.20;48.90
21439;DHT22;10880;50.302;18.736;2023-04-06T05:08:22;3.30;48.90
21439;DHT22;10880;50.302;18.736;2023-04-06T05:10:55;3.20;49.10
21439;DHT22;10880;50.302;18.736;2023-04-06T05:13:52;3.30;49.20
21439;DHT22;10880;50.302;18.736;2023-04-06T05:16:26;3.40;49.30
21439;DHT22;10880;50.302;18.736;2023-04-06T05:19:22;3.40;49.40
21439;DHT22;10880;50.302;18.736;2023-04-06T05:21:55;3.50;49.10
21439;DHT22;10880;50.302;18.736;2023-04-06T05:24:50;3.60;49.60
21439;DHT22;10880;50.302;18.736;2023-04-06T05:27:23;3.70;49.40
21439;DHT22;10880;50.302;18.736;2023-04-06T05:30:21;3.70;49.60
21439;DHT22;10880;50.302;18.736;2023-04-06T05:32:54;3.80;49.30
21439;DHT22;10880;50.302;18.736;2023-04-06T05:36:09;3.90;49.80
21439;DHT22;10880;50.302;18.736;2023-04-06T05:38:45;4.00;49.70
21439;DHT22;10880;50.302;18.736;2023-04-06T05:41:49;4.10;49.80
21439;DHT22;10880;50.302;18.736;2023-04-06T05:44:37;4.20;49.90
21439;DHT22;10880;50.302;18.736;2023-04-06T05:47:31;4.40;50.40
21439;DHT22;10880;50.302;18.736;2023-04-06T05:50:24;4.60;50.30
21439;DHT22;10880;50.302;18.736;2023-04-06T05:53:17;5.00;50.50
21439;DHT22;10880;50.302;18.736;2023-04-06T05:56:12;5.00;50.80
21439;DHT22;10880;50.302;18.736;2023-04-06T05:58:46;5.20;50.60
21439;DHT22;10880;50.302;18.736;2023-04-06T06:01:44;5.40;50.70
21439;DHT22;10880;50.302;18.736;2023-04-06T06:04:20;5.60;50.50
21439;DHT22;10880;50.302;18.736;2023-04-06T06:07:13;5.80;50.20
21439;DHT22;10880;50.302;18.736;2023-04-06T06:10:00;6.00;50.20
21439;DHT22;10880;50.302;18.736;2023-04-06T06:12:55;6.10;50.00
21439;DHT22;10880;50.302;18.736;2023-04-06T06:15:28;6.30;49.80
21439;DHT22;10880;50.302;18.736;2023-04-06T06:18:22;6.40;50.00
21439;DHT22;10880;50.302;18.736;2023-04-06T06:20:55;6.70;49.80
21439;DHT22;10880;50.302;18.736;2023-04-06T06:23:48;6.80;49.80
21439;DHT22;10880;50.302;18.736;2023-04-06T06:26:23;7.10;49.80
21439;DHT22;10880;50.302;18.736;2023-04-06T06:29:17;7.10;49.90
21439;DHT22;10880;50.302;18.736;2023-04-06T06:31:50;7.30;49.80
21439;DHT22;10880;50.302;18.736;2023-04-06T06:34:43;7.50;49.70
21439;DHT22;10880;50.302;18.736;2023-04-06T06:37:17;7.70;49.50
21439;DHT22;10880;50.302;18.736;2023-04-06T06:40:11;7.80;49.10
21439;DHT22;10880;50.302;18.736;2023-04-06T06:42:47;7.90;48.60
21439;DHT22;10880;50.302;18.736;2023-04-06T06:45:45;8.00;48.60
21439;DHT22;10880;50.302;18.736;2023-04-06T06:48:18;8.10;48.20
21439;DHT22;10880;50.302;18.736;2023-04-06T06:51:11;8.10;48.00
21439;DHT22;10880;50.302;18.736;2023-04-06T06:54:05;8.20;47.90
21439;DHT22;10880;50.302;18.736;2023-04-06T06:56:41;8.20;47.60
21439;DHT22;10880;50.302;18.736;2023-04-06T06:59:34;8.20;47.50
21439;DHT22;10880;50.302;18.736;2023-04-06T07:02:07;8.30;47.40
21439;DHT22;10880;50.302;18.736;2023-04-06T07:05:00;8.30;47.30
21439;DHT22;10880;50.302;18.736;2023-04-06T07:07:34;8.30;47.10
21439;DHT22;10880;50.302;18.736;2023-04-06T07:10:27;8.30;46.80
21439;DHT22;10880;50.302;18.736;2023-04-06T07:13:00;8.30;46.70
21439;DHT22;10880;50.302;18.736;2023-04-06T07:15:53;8.30;46.90
21439;DHT22;10880;50.302;18.736;2023-04-06T07:18:27;8.30;46.70
21439;DHT22;10880;50.302;18.736;2023-04-06T07:21:21;8.30;46.30
21439;DHT22;10880;50.302;18.736;2023-04-06T07:23:55;8.30;46.60
21439;DHT22;10880;50.302;18.736;2023-04-06T07:26:48;8.30;46.40
21439;DHT22;10880;50.302;18.736;2023-04-06T07:29:22;8.30;46.20
21439;DHT22;10880;50.302;18.736;2023-04-06T07:32:17;8.30;46.40
21439;DHT22;10880;50.302;18.736;2023-04-06T07:34:50;8.30;46.60
21439;DHT22;10880;50.302;18.736;2023-04-06T07:37:43;8.30;46.40
21439;DHT22;10880;50.302;18.736;2023-04-06T07:40:16;8.30;46.30
21439;DHT22;10880;50.302;18.736;2023-04-06T07:43:10;8.30;46.40
21439;DHT22;10880;50.302;18.736;2023-04-06T07:45:44;8.30;46.40
21439;DHT22;10880;50.302;18.736;2023-04-06T07:48:37;8.40;47.10
21439;DHT22;10880;50.302;18.736;2023-04-06T07:51:18;8.40;46.30
21439;DHT22;10880;50.302;18.736;2023-04-06T07:54:11;8.40;46.10
21439;DHT22;10880;50.302;18.736;2023-04-06T07:56:45;8.40;46.00
21439;DHT22;10880;50.302;18.736;2023-04-06T07:59:38;8.50;46.10
21439;DHT22;10880;50.302;18.736;2023-04-06T08:02:11;8.50;45.70
21439;DHT22;10880;50.302;18.736;2023-04-06T08:05:05;8.50;45.60
21439;DHT22;10880;50.302;18.736;2023-04-06T08:07:38;8.50;45.60
21439;DHT22;10880;50.302;18.736;2023-04-06T08:10:31;8.50;45.20
21439;DHT22;10880;50.302;18.736;2023-04-06T08:13:06;8.50;45.30
21439;DHT22;10880;50.302;18.736;2023-04-06T08:15:59;8.50;45.70
21439;DHT22;10880;50.302;18.736;2023-04-06T08:18:33;8.50;45.20
21439;DHT22;10880;50.302;18.736;2023-04-06T08:21:27;8.50;45.50
21439;DHT22;10880;50.302;18.736;2023-04-06T08:24:03;8.50;45.20
21439;DHT22;10880;50.302;18.736;2023-04-06T08:26:56;8.50;45.40
21439;DHT22;10880;50.302;18.736;2023-04-06T08:29:32;8.50;45.20
21439;DHT22;10880;50.302;18.736;2023-04-06T08:32:27;8.50;45.40
21439;DHT22;10880;50.302;18.736;2023-04-06T08:35:00;8.50;45.40
21439;DHT22;10880;50.302;18.736;2023-04-06T08:37:53;8.50;45.20
21439;DHT22;10880;50.302;18.736;2023-04-06T08:40:27;8.60;45.30
21439;DHT22;10880;50.302;18.736;2023-04-06T08:43:24;8.60;45.20
21439;DHT22;10880;50.302;18.736;2023-04-06T08:45:59;8.60;45.10
21439;DHT22;10880;50.302;18.736;2023-04-06T08:48:53;8.60;45.50
21439;DHT22;10880;50.302;18.736;2023-04-06T08:51:28;8.70;45.40
21439;DHT22;10880;50.302;18.736;2023-04-06T08:54:20;8.70;45.60
21439;DHT22;10880;50.302;18.736;2023-04-06T08:56:53;8.70;45.30
21439;DHT22;10880;50.302;18.736;2023-04-06T08:59:47;8.70;45.30
21439;DHT22;10880;50.302;18.736;2023-04-06T09:02:20;8.70;45.40
21439;DHT22;10880;50.302;18.736;2023-04-06T09:05:13;8.80;45.60
21439;DHT22;10880;50.302;18.736;2023-04-06T09:07:48;8.80;45.50
21439;DHT22;10880;50.302;18.736;2023-04-06T09:10:42;8.80;45.50
21439;DHT22;10880;50.302;18.736;2023-04-06T09:13:16;8.90;45.50
21439;DHT22;10880;50.302;18.736;2023-04-06T09:16:09;8.90;45.50
21439;DHT22;10880;50.302;18.736;2023-04-06T09:18:42;9.00;45.40
21439;DHT22;10880;50.302;18.736;2023-04-06T09:21:36;9.00;45.40
21439;DHT22;10880;50.302;18.736;2023-04-06T09:24:13;9.00;45.40
21439;DHT22;10880;50.302;18.736;2023-04-06T09:27:11;9.10;45.30
21439;DHT22;10880;50.302;18.736;2023-04-06T09:29:47;9.10;45.00
21439;DHT22;10880;50.302;18.736;2023-04-06T09:32:52;9.10;45.80
21439;DHT22;10880;50.302;18.736;2023-04-06T09:35:25;9.10;45.10
21439;DHT22;10880;50.302;18.736;2023-04-06T09:38:22;9.10;44.90
21439;DHT22;10880;50.302;18.736;2023-04-06T09:40:55;9.10;44.90
21439;DHT22;10880;50.302;18.736;2023-04-06T09:44:01;9.10;44.90
21439;DHT22;10880;50.302;18.736;2023-04-06T09:46:37;9.10;45.00
21439;DHT22;10880;50.302;18.736;2023-04-06T09:49:31;9.10;45.00
21439;DHT22;10880;50.302;18.736;2023-04-06T09:52:06;9.10;45.00
21439;DHT22;10880;50.302;18.736;2023-04-06T09:55:04;9.10;45.00
21439;DHT22;10880;50.302;18.736;2023-04-06T10:00:25;9.20;45.00
21439;DHT22;10880;50.302;18.736;2023-04-06T10:06:35;9.20;45.20
21439;DHT22;10880;50.302;18.736;2023-04-06T10:09:15;9.30;44.80
21439;DHT22;10880;50.302;18.736;2023-04-06T10:12:06;9.30;44.70
21439;DHT22;10880;50.302;18.736;2023-04-06T10:14:48;9.30;44.80
21439;DHT22;10880;50.302;18.736;2023-04-06T10:17:34;9.30;44.70
21439;DHT22;10880;50.302;18.736;2023-04-06T10:20:23;9.40;44.80
21439;DHT22;10880;50.302;18.736;2023-04-06T10:23:20;9.40;44.90
21439;DHT22;10880;50.302;18.736;2023-04-06T10:26:03;9.40;45.00
21439;DHT22;10880;50.302;18.736;2023-04-06T10:28:50;9.40;44.90
21439;DHT22;10880;50.302;18.736;2023-04-06T10:31:30;9.50;44.90
21439;DHT22;10880;50.302;18.736;2023-04-06T10:34:16;9.50;44.70
21439;DHT22;10880;50.302;18.736;2023-04-06T10:36:56;9.60;44.60
21439;DHT22;10880;50.302;18.736;2023-04-06T10:39:49;9.60;44.80
21439;DHT22;10880;50.302;18.736;2023-04-06T10:42:37;9.60;44.70
21439;DHT22;10880;50.302;18.736;2023-04-06T10:45:31;9.60;44.70
21439;DHT22;10880;50.302;18.736;2023-04-06T10:48:18;9.70;44.20
21439;DHT22;10880;50.302;18.736;2023-04-06T10:51:11;9.70;44.80
21439;DHT22;10880;50.302;18.736;2023-04-06T10:54:01;9.70;44.30
21439;DHT22;10880;50.302;18.736;2023-04-06T10:56:56;9.70;44.90
21439;DHT22;10880;50.302;18.736;2023-04-06T10:59:29;9.80;44.50
21439;DHT22;10880;50.302;18.736;2023-04-06T11:02:22;9.80;44.70
21439;DHT22;10880;50.302;18.736;2023-04-06T11:04:57;9.80;44.40
21439;DHT22;10880;50.302;18.736;2023-04-06T11:07:49;9.80;44.60
21439;DHT22;10880;50.302;18.736;2023-04-06T11:10:22;9.90;44.50
21439;DHT22;10880;50.302;18.736;2023-04-06T11:13:17;9.90;44.40
21439;DHT22;10880;50.302;18.736;2023-04-06T11:15:50;9.90;44.40
21439;DHT22;10880;50.302;18.736;2023-04-06T11:19:03;9.90;44.30
21439;DHT22;10880;50.302;18.736;2023-04-06T11:21:42;9.90;44.40
21439;DHT22;10880;50.302;18.736;2023-04-06T11:24:35;9.90;44.40
21439;DHT22;10880;50.302;18.736;2023-04-06T11:27:11;9.90;43.90
21439;DHT22;10880;50.302;18.736;2023-04-06T11:30:05;9.90;44.00
21439;DHT22;10880;50.302;18.736;2023-04-06T11:32:41;9.90;43.90
21439;DHT22;10880;50.302;18.736;2023-04-06T11:35:34;9.90;43.60
21439;DHT22;10880;50.302;18.736;2023-04-06T11:38:08;9.90;43.90
21439;DHT22;10880;50.302;18.736;2023-04-06T11:41:02;9.90;44.00
21439;DHT22;10880;50.302;18.736;2023-04-06T11:43:35;9.90;44.00
21439;DHT22;10880;50.302;18.736;2023-04-06T11:46:28;9.90;44.00
21439;DHT22;10880;50.302;18.736;2023-04-06T11:49:02;9.90;44.00
21439;DHT22;10880;50.302;18.736;2023-04-06T11:51:56;9.90;44.10
21439;DHT22;10880;50.302;18.736;2023-04-06T11:54:52;9.90;44.20
21439;DHT22;10880;50.302;18.736;2023-04-06T11:57:29;10.00;44.20
21439;DHT22;10880;50.302;18.736;2023-04-06T12:00:21;10.00;43.90
21439;DHT22;10880;50.302;18.736;2023-04-06T12:02:54;10.00;44.00
21439;DHT22;10880;50.302;18.736;2023-04-06T12:05:48;10.00;44.00
21439;DHT22;10880;50.302;18.736;2023-04-06T12:08:23;10.10;44.00
21439;DHT22;10880;50.302;18.736;2023-04-06T12:11:16;10.10;44.00
21439;DHT22;10880;50.302;18.736;2023-04-06T12:13:51;10.10;44.00
21439;DHT22;10880;50.302;18.736;2023-04-06T12:16:48;10.10;43.80
21439;DHT22;10880;50.302;18.736;2023-04-06T12:19:22;10.10;43.80
21439;DHT22;10880;50.302;18.736;2023-04-06T12:22:15;10.10;43.80
21439;DHT22;10880;50.302;18.736;2023-04-06T12:24:48;10.10;43.50
21439;DHT22;10880;50.302;18.736;2023-04-06T12:27:41;10.10;43.50
21439;DHT22;10880;50.302;18.736;2023-04-06T12:30:14;10.10;43.30
21439;DHT22;10880;50.302;18.736;2023-04-06T12:33:12;10.00;43.50
21439;DHT22;10880;50.302;18.736;2023-04-06T12:35:45;10.00;43.40
21439;DHT22;10880;50.302;18.736;2023-04-06T12:38:41;10.00;43.50
21439;DHT22;10880;50.302;18.736;2023-04-06T12:41:14;10.00;43.40
21439;DHT22;10880;50.302;18.736;2023-04-06T12:44:07;9.90;43.30
21439;DHT22;10880;50.302;18.736;2023-04-06T12:46:40;9.90;43.30
21439;DHT22;10880;50.302;18.736;2023-04-06T12:49:34;9.90;43.40
21439;DHT22;10880;50.302;18.736;2023-04-06T12:52:09;9.90;43.30
21439;DHT22;10880;50.302;18.736;2023-04-06T12:55:05;9.80;43.40
21439;DHT22;10880;50.302;18.736;2023-04-06T12:57:40;9.90;43.40
21439;DHT22;10880;50.302;18.736;2023-04-06T13:00:32;9.80;43.30
21439;DHT22;10880;50.302;18.736;2023-04-06T13:03:08;9.80;43.20
21439;DHT22;10880;50.302;18.736;2023-04-06T13:06:02;9.80;43.30
21439;DHT22;10880;50.302;18.736;2023-04-06T13:08:35;9.70;43.20
21439;DHT22;10880;50.302;18.736;2023-04-06T13:11:29;9.70;43.20
21439;DHT22;10880;50.302;18.736;2023-04-06T13:14:02;9.70;43.30
21439;DHT22;10880;50.302;18.736;2023-04-06T13:16:55;9.70;43.30
21439;DHT22;10880;50.302;18.736;2023-04-06T13:19:28;9.60;43.30
21439;DHT22;10880;50.302;18.736;2023-04-06T13:22:22;9.60;43.40
21439;DHT22;10880;50.302;18.736;2023-04-06T13:24:55;9.60;43.30
21439;DHT22;10880;50.302;18.736;2023-04-06T13:27:48;9.60;43.40
21439;DHT22;10880;50.302;18.736;2023-04-06T13:30:22;9.60;43.30
21439;DHT22;10880;50.302;18.736;2023-04-06T13:33:15;9.60;43.40
21439;DHT22;10880;50.302;18.736;2023-04-06T13:35:48;9.50;43.20
21439;DHT22;10880;50.302;18.736;2023-04-06T13:38:41;9.50;43.30
21439;DHT22;10880;50.302;18.736;2023-04-06T13:41:20;9.50;43.20
21439;DHT22;10880;50.302;18.736;2023-04-06T13:44:13;9.50;43.50
21439;DHT22;10880;50.302;18.736;2023-04-06T13:46:46;9.40;43.20
21439;DHT22;10880;50.302;18.736;2023-04-06T13:49:39;9.40;43.60
21439;DHT22;10880;50.302;18.736;2023-04-06T13:52:13;9.40;43.70
21439;DHT22;10880;50.302;18.736;2023-04-06T13:55:07;9.40;43.90
21439;DHT22;10880;50.302;18.736;2023-04-06T13:57:41;9.30;43.80
21439;DHT22;10880;50.302;18.736;2023-04-06T14:00:34;9.30;43.80
21439;DHT22;10880;50.302;18.736;2023-04-06T14:03:07;9.30;43.90
21439;DHT22;10880;50.302;18.736;2023-04-06T14:06:01;9.30;44.00
21439;DHT22;10880;50.302;18.736;2023-04-06T14:08:34;9.20;44.10
21439;DHT22;10880;50.302;18.736;2023-04-06T14:11:28;9.10;44.10
21439;DHT22;10880;50.302;18.736;2023-04-06T14:14:01;9.10;44.10
21439;DHT22;10880;50.302;18.736;2023-04-06T14:16:55;9.10;44.30
21439;DHT22;10880;50.302;18.736;2023-04-06T14:19:28;9.00;44.30
21439;DHT22;10880;50.302;18.736;2023-04-06T14:22:21;9.00;44.40
21439;DHT22;10880;50.302;18.736;2023-04-06T14:24:55;9.00;44.40
21439;DHT22;10880;50.302;18.736;2023-04-06T14:27:51;8.90;44.40
21439;DHT22;10880;50.302;18.736;2023-04-06T14:30:24;8.90;44.50
21439;DHT22;10880;50.302;18.736;2023-04-06T14:33:17;8.80;44.50
21439;DHT22;10880;50.302;18.736;2023-04-06T14:35:50;8.80;44.70
21439;DHT22;10880;50.302;18.736;2023-04-06T14:38:44;8.70;44.70
21439;DHT22;10880;50.302;18.736;2023-04-06T14:41:20;8.70;44.80
21439;DHT22;10880;50.302;18.736;2023-04-06T14:44:16;8.70;44.70
21439;DHT22;10880;50.302;18.736;2023-04-06T14:46:49;8.70;45.00
21439;DHT22;10880;50.302;18.736;2023-04-06T14:49:42;8.70;45.10
21439;DHT22;10880;50.302;18.736;2023-04-06T14:52:15;8.60;45.10
21439;DHT22;10880;50.302;18.736;2023-04-06T14:55:09;8.60;45.20
21439;DHT22;10880;50.302;18.736;2023-04-06T14:57:41;8.60;45.30
21439;DHT22;10880;50.302;18.736;2023-04-06T15:00:36;8.60;45.50
21439;DHT22;10880;50.302;18.736;2023-04-06T15:03:08;8.60;45.70
21439;DHT22;10880;50.302;18.736;2023-04-06T15:06:06;8.60;45.70
21439;DHT22;10880;50.302;18.736;2023-04-06T15:08:54;8.60;45.80
21439;DHT22;10880;50.302;18.736;2023-04-06T15:11:52;8.60;45.80
21439;DHT22;10880;50.302;18.736;2023-04-06T15:14:24;8.60;45.50
21439;DHT22;10880;50.302;18.736;2023-04-06T15:17:17;8.60;45.90
21439;DHT22;10880;50.302;18.736;2023-04-06T15:19:50;8.60;45.80
21439;DHT22;10880;50.302;18.736;2023-04-06T15:22:44;8.60;45.90
21439;DHT22;10880;50.302;18.736;2023-04-06T15:25:19;8.60;45.90
21439;DHT22;10880;50.302;18.736;2023-04-06T15:28:13;8.60;45.90
21439;DHT22;10880;50.302;18.736;2023-04-06T15:30:50;8.60;45.70
21439;DHT22;10880;50.302;18.736;2023-04-06T15:33:44;8.60;46.10
21439;DHT22;10880;50.302;18.736;2023-04-06T15:36:25;8.60;46.00
21439;DHT22;10880;50.302;18.736;2023-04-06T15:39:18;8.60;46.20
21439;DHT22;10880;50.302;18.736;2023-04-06T15:41:52;8.60;46.10
21439;DHT22;10880;50.302;18.736;2023-04-06T15:44:45;8.60;46.20
21439;DHT22;10880;50.302;18.736;2023-04-06T15:47:18;8.60;46.20
21439;DHT22;10880;50.302;18.736;2023-04-06T15:50:12;8.60;46.90
21439;DHT22;10880;50.302;18.736;2023-04-06T15:55:40;8.50;45.90
21439;DHT22;10880;50.302;18.736;2023-04-06T15:58:13;8.50;46.30
21439;DHT22;10880;50.302;18.736;2023-04-06T16:01:15;8.50;46.40
21439;DHT22;10880;50.302;18.736;2023-04-06T16:03:48;8.50;46.60
21439;DHT22;10880;50.302;18.736;2023-04-06T16:06:41;8.50;46.50
21439;DHT22;10880;50.302;18.736;2023-04-06T16:09:14;8.50;46.60
21439;DHT22;10880;50.302;18.736;2023-04-06T16:12:08;8.50;46.60
21439;DHT22;10880;50.302;18.736;2023-04-06T16:14:42;8.60;46.70
21439;DHT22;10880;50.302;18.736;2023-04-06T16:17:36;8.60;46.80
21439;DHT22;10880;50.302;18.736;2023-04-06T16:20:08;8.60;46.80
21439;DHT22;10880;50.302;18.736;2023-04-06T16:23:04;8.60;46.80
21439;DHT22;10880;50.302;18.736;2023-04-06T16:25:37;8.70;46.80
21439;DHT22;10880;50.302;18.736;2023-04-06T16:28:31;8.70;47.40
21439;DHT22;10880;50.302;18.736;2023-04-06T16:31:04;8.70;46.70
21439;DHT22;10880;50.302;18.736;2023-04-06T16:33:59;8.70;46.80
21439;DHT22;10880;50.302;18.736;2023-04-06T16:36:31;8.70;46.70
21439;DHT22;10880;50.302;18.736;2023-04-06T16:39:27;8.70;46.40
21439;DHT22;10880;50.302;18.736;2023-04-06T16:42:00;8.70;46.70
21439;DHT22;10880;50.302;18.736;2023-04-06T16:44:54;8.70;46.80
21439;DHT22;10880;50.302;18.736;2023-04-06T16:47:26;8.70;46.80
21439;DHT22;10880;50.302;18.736;2023-04-06T16:50:20;8.70;46.70
21439;DHT22;10880;50.302;18.736;2023-04-06T16:52:52;8.60;47.00
21439;DHT22;10880;50.302;18.736;2023-04-06T16:55:47;8.60;47.10
21439;DHT22;10880;50.302;18.736;2023-04-06T16:58:19;8.60;47.20
21439;DHT22;10880;50.302;18.736;2023-04-06T17:01:39;8.50;47.20
21439;DHT22;10880;50.302;18.736;2023-04-06T17:04:14;8.50;47.10
21439;DHT22;10880;50.302;18.736;2023-04-06T17:07:09;8.40;47.40
21439;DHT22;10880;50.302;18.736;2023-04-06T17:09:42;8.40;47.20
21439;DHT22;10880;50.302;18.736;2023-04-06T17:12:35;8.40;47.60
21439;DHT22;10880;50.302;18.736;2023-04-06T17:15:09;8.30;47.30
21439;DHT22;10880;50.302;18.736;2023-04-06T17:18:02;8.40;47.80
21439;DHT22;10880;50.302;18.736;2023-04-06T17:20:36;8.30;47.70
21439;DHT22;10880;50.302;18.736;2023-04-06T17:23:28;8.30;47.60
21439;DHT22;10880;50.302;18.736;2023-04-06T17:26:05;8.30;48.00
21439;DHT22;10880;50.302;18.736;2023-04-06T17:28:59;8.30;47.60
21439;DHT22;10880;50.302;18.736;2023-04-06T17:31:31;8.30;48.00